Time;durP1;ratioP1;P1;durP2;ratioP2;P2;SDS_P1;SDS_P2;PMS_P1;PMS_P2;Temp;Humidity;BMP_temperature;BMP_pressure;BME280_temperature;BME280_humidity;BME280_pressure;Samples;Min_cycle;Max_cycle;Signal;HPM_P1;HPM_P2
2022/01/26 00:07:43;;;;;;;119.60;33.17;;;;;;;;;;6194885;23;20231;-70
2022/01/26 00:10:11;;;;;;;115.20;34.23;;;;;;;;;;6167505;23;20200;-70
2022/01/26 00:12:38;;;;;;;121.30;35.90;;;;;;;;;;6167498;23;20180;-71
2022/01/26 00:15:05;;;;;;;108.07;32.00;;;;;;;;;;6167676;23;20203;-71
2022/01/26 00:17:33;;;;;;;116.17;33.07;;;;;;;;;;6191984;23;20608;-71
2022/01/26 00:20:11;;;;;;;95.10;31.13;;;;;;;;;;6167332;23;20176;-71
2022/01/26 00:28:08;;;;;;;85.23;28.03;;;;;;;;;;6193444;23;20241;-71
2022/01/26 00:41:07;;;;;;;105.00;32.70;;;;;;;;;;6216415;23;20251;-71
2022/01/26 00:43:36;;;;;;;103.27;34.47;;;;;;;;;;6191655;23;20236;-71
2022/01/26 00:46:06;;;;;;;124.23;37.57;;;;;;;;;;6191518;23;20232;-71
2022/01/26 00:48:37;;;;;;;112.80;35.43;;;;;;;;;;6191477;23;20256;-71
2022/01/26 00:51:06;;;;;;;120.03;36.20;;;;;;;;;;6167835;23;20164;-71
2022/01/26 00:53:38;;;;;;;109.63;36.77;;;;;;;;;;6191421;23;20254;-71
2022/01/26 00:56:08;;;;;;;109.43;36.33;;;;;;;;;;6216358;23;20595;-71
2022/01/26 00:58:35;;;;;;;105.37;35.90;;;;;;;;;;6166829;23;20671;-72
2022/01/26 01:01:03;;;;;;;114.23;35.23;;;;;;;;;;6167197;23;20623;-71
2022/01/26 01:03:34;;;;;;;103.80;33.67;;;;;;;;;;6191575;23;20254;-71
2022/01/26 01:06:16;;;;;;;94.43;32.57;;;;;;;;;;6191391;23;20179;-71
2022/01/26 01:08:46;;;;;;;93.93;30.80;;;;;;;;;;6190670;23;20168;-72
2022/01/26 01:11:16;;;;;;;95.63;31.90;;;;;;;;;;6191475;23;20183;-71
2022/01/26 01:13:45;;;;;;;81.53;30.07;;;;;;;;;;6191398;23;20544;-71
2022/01/26 01:16:17;;;;;;;83.00;28.40;;;;;;;;;;6191509;23;20672;-71
2022/01/26 01:19:00;;;;;;;80.77;29.57;;;;;;;;;;6216183;23;20164;-71
2022/01/26 01:22:03;;;;;;;78.00;28.50;;;;;;;;;;6216225;23;20221;-71
2022/01/26 01:27:57;;;;;;;76.83;28.53;;;;;;;;;;6194277;23;20164;-71
2022/01/26 01:30:07;;;;;;;79.57;28.23;;;;;;;;;;6191381;23;20606;-71
2022/01/26 01:32:51;;;;;;;76.93;27.43;;;;;;;;;;6169734;23;20620;-71
2022/01/26 01:35:19;;;;;;;74.03;26.60;;;;;;;;;;6170331;23;20237;-71
2022/01/26 01:37:48;;;;;;;77.13;27.37;;;;;;;;;;6166895;23;20183;-71
2022/01/26 01:40:15;;;;;;;77.17;28.27;;;;;;;;;;6166922;23;20176;-71
2022/01/26 01:42:43;;;;;;;88.07;30.13;;;;;;;;;;6191355;23;20183;-71
2022/01/26 01:45:11;;;;;;;81.63;28.60;;;;;;;;;;6191271;23;20637;-71
2022/01/26 01:47:38;;;;;;;75.97;27.17;;;;;;;;;;6191000;23;20177;-71
2022/01/26 01:50:12;;;;;;;82.90;28.87;;;;;;;;;;6190941;23;20279;-71
2022/01/26 01:52:41;;;;;;;81.50;29.13;;;;;;;;;;6215851;23;20164;-71
2022/01/26 01:55:12;;;;;;;81.67;29.13;;;;;;;;;;6142185;23;20187;-71
2022/01/26 01:57:39;;;;;;;92.83;30.63;;;;;;;;;;6141492;23;20180;-71
2022/01/26 02:00:08;;;;;;;90.87;32.23;;;;;;;;;;6166624;23;20176;-71
2022/01/26 02:02:35;;;;;;;89.20;30.00;;;;;;;;;;6166408;23;20176;-70
2022/01/26 02:05:03;;;;;;;90.87;30.33;;;;;;;;;;6166081;23;20180;-70
2022/01/26 02:07:31;;;;;;;88.50;31.33;;;;;;;;;;6166608;23;20178;-69
2022/01/26 02:09:59;;;;;;;96.40;32.33;;;;;;;;;;6166039;23;20215;-70
2022/01/26 02:12:27;;;;;;;89.23;32.00;;;;;;;;;;6166276;23;20638;-70
2022/01/26 02:15:05;;;;;;;90.07;31.20;;;;;;;;;;6166556;23;20180;-69
2022/01/26 03:00:18;;;;;;;78.57;30.37;;;;;;;;;;6216806;23;20187;-71
2022/01/26 03:05:19;;;;;;;74.33;28.17;;;;;;;;;;6215247;23;20235;-70
2022/01/26 03:07:58;;;;;;;71.83;27.43;;;;;;;;;;6191163;23;20230;-69
2022/01/26 03:10:45;;;;;;;73.23;27.67;;;;;;;;;;6168026;23;20188;-70
2022/01/26 03:13:18;;;;;;;75.73;27.07;;;;;;;;;;6190570;23;20164;-70
2022/01/26 03:15:52;;;;;;;65.20;26.30;;;;;;;;;;6166957;23;20165;-70
2022/01/26 03:18:41;;;;;;;70.93;26.90;;;;;;;;;;6167333;23;20536;-70
2022/01/26 03:21:11;;;;;;;60.43;26.03;;;;;;;;;;6170326;23;20171;-72
2022/01/26 03:29:14;;;;;;;63.90;25.40;;;;;;;;;;6193220;23;20247;-72
2022/01/26 03:34:19;;;;;;;64.63;25.97;;;;;;;;;;6214961;23;20243;-70
2022/01/26 03:36:51;;;;;;;72.23;26.27;;;;;;;;;;6214934;23;20550;-70
2022/01/26 03:39:22;;;;;;;62.17;26.10;;;;;;;;;;6189720;23;20164;-70
2022/01/26 03:41:55;;;;;;;70.57;26.70;;;;;;;;;;6214890;23;20485;-71
2022/01/26 03:44:23;;;;;;;71.17;27.93;;;;;;;;;;6167347;23;20464;-72
2022/01/26 03:46:51;;;;;;;64.00;25.90;;;;;;;;;;6165685;23;20231;-70
2022/01/26 03:49:18;;;;;;;70.40;27.03;;;;;;;;;;6165437;23;20608;-72
2022/01/26 03:51:46;;;;;;;65.77;25.43;;;;;;;;;;6165104;23;20169;-71
2022/01/26 03:54:16;;;;;;;72.00;26.27;;;;;;;;;;6189857;23;20176;-71
2022/01/26 03:56:43;;;;;;;68.07;27.10;;;;;;;;;;6190117;23;20183;-70
2022/01/26 03:59:11;;;;;;;62.40;25.20;;;;;;;;;;6165514;23;20263;-71
2022/01/26 04:01:39;;;;;;;71.77;26.83;;;;;;;;;;6190023;23;20495;-71
2022/01/26 04:04:07;;;;;;;63.97;25.50;;;;;;;;;;6189938;23;20210;-70
2022/01/26 04:06:35;;;;;;;57.70;24.67;;;;;;;;;;6165520;23;20611;-71
2022/01/26 04:09:06;;;;;;;55.53;22.77;;;;;;;;;;6189902;23;20200;-70
2022/01/26 04:11:42;;;;;;;61.57;23.27;;;;;;;;;;6165787;23;20197;-71
2022/01/26 04:14:17;;;;;;;59.97;23.43;;;;;;;;;;6167403;23;20171;-71
2022/01/26 04:16:44;;;;;;;60.60;24.00;;;;;;;;;;6165816;23;20170;-71
2022/01/26 04:19:12;;;;;;;56.20;23.07;;;;;;;;;;6165540;23;20204;-71
2022/01/26 04:24:40;;;;;;;72.57;31.93;;;;;;;;;;6214506;23;20263;-71
2022/01/26 04:27:23;;;;;;;69.30;26.13;;;;;;;;;;6194660;23;20714;-70
2022/01/26 04:29:51;;;;;;;64.77;25.70;;;;;;;;;;6168671;23;20257;-70
2022/01/26 04:32:18;;;;;;;70.93;27.27;;;;;;;;;;6165099;23;20260;-70
2022/01/26 04:34:48;;;;;;;65.73;26.07;;;;;;;;;;6165390;23;20180;-71
2022/01/26 04:39:50;;;;;;;72.40;27.87;;;;;;;;;;6189842;23;20180;-71
2022/01/26 04:42:49;;;;;;;68.20;26.83;;;;;;;;;;6167611;23;20596;-72
2022/01/26 04:45:09;;;;;;;69.97;27.50;;;;;;;;;;6213855;23;20183;-72
2022/01/26 04:47:37;;;;;;;82.17;30.23;;;;;;;;;;6216466;23;20642;-72
2022/01/26 04:50:08;;;;;;;78.23;30.83;;;;;;;;;;6191479;23;20271;-71
2022/01/26 04:52:37;;;;;;;66.87;27.17;;;;;;;;;;6191534;23;20165;-73
2022/01/26 04:55:05;;;;;;;73.10;28.87;;;;;;;;;;6191723;23;20199;-71
2022/01/26 04:57:32;;;;;;;68.40;27.47;;;;;;;;;;6191456;23;20176;-74
2022/01/26 05:00:00;;;;;;;70.57;29.50;;;;;;;;;;6184756;23;20208;-70
2022/01/26 05:02:28;;;;;;;77.07;29.80;;;;;;;;;;6191102;23;20200;-70
2022/01/26 05:04:56;;;;;;;83.60;29.33;;;;;;;;;;6166172;23;20208;-69
2022/01/26 05:07:23;;;;;;;95.17;34.90;;;;;;;;;;6166499;23;20200;-70
2022/01/26 05:09:50;;;;;;;99.17;34.77;;;;;;;;;;6165678;23;20208;-70
2022/01/26 05:12:18;;;;;;;90.93;32.10;;;;;;;;;;6166185;23;20207;-73
2022/01/26 05:14:48;;;;;;;79.53;29.83;;;;;;;;;;6165219;23;20208;-70
2022/01/26 05:17:19;;;;;;;83.27;29.80;;;;;;;;;;6190927;23;20536;-69
2022/01/26 05:19:47;;;;;;;86.47;31.77;;;;;;;;;;6166710;23;20208;-69
2022/01/26 05:22:15;;;;;;;86.97;33.37;;;;;;;;;;6215285;23;20199;-69
2022/01/26 05:24:42;;;;;;;88.80;32.93;;;;;;;;;;6215052;23;20211;-71
2022/01/26 05:27:09;;;;;;;92.87;33.43;;;;;;;;;;6216860;23;20210;-74
2022/01/26 05:29:36;;;;;;;99.03;33.63;;;;;;;;;;6215864;23;20210;-69
2022/01/26 05:32:04;;;;;;;94.53;33.03;;;;;;;;;;6216674;23;20291;-73
2022/01/26 05:34:31;;;;;;;100.27;34.17;;;;;;;;;;6216494;23;20203;-68
2022/01/26 05:36:59;;;;;;;112.30;35.47;;;;;;;;;;6216910;23;20204;-69
2022/01/26 05:39:27;;;;;;;91.77;33.27;;;;;;;;;;6216218;23;20211;-71
2022/01/26 05:41:54;;;;;;;99.47;33.70;;;;;;;;;;6216543;23;20210;-68
2022/01/26 05:44:21;;;;;;;104.57;34.53;;;;;;;;;;6215948;23;20220;-69
2022/01/26 05:46:50;;;;;;;106.57;34.23;;;;;;;;;;6216182;23;20694;-71
2022/01/26 05:49:18;;;;;;;107.57;35.33;;;;;;;;;;6216198;23;20239;-70
2022/01/26 05:51:46;;;;;;;97.27;33.97;;;;;;;;;;6215961;23;20215;-69
2022/01/26 05:54:15;;;;;;;110.00;36.07;;;;;;;;;;6215940;23;20491;-67
2022/01/26 05:56:44;;;;;;;98.87;35.20;;;;;;;;;;6215907;23;20311;-72
2022/01/26 05:59:14;;;;;;;108.70;33.73;;;;;;;;;;6164676;23;20208;-70
2022/01/26 06:01:42;;;;;;;113.17;35.53;;;;;;;;;;6215766;23;20679;-72
2022/01/26 06:04:09;;;;;;;125.47;37.77;;;;;;;;;;6216236;23;20283;-68
2022/01/26 06:06:37;;;;;;;111.57;37.07;;;;;;;;;;6215714;23;20279;-72
2022/01/26 06:09:09;;;;;;;122.77;38.77;;;;;;;;;;6216198;23;20275;-71
2022/01/26 06:11:36;;;;;;;122.80;37.47;;;;;;;;;;6215811;23;20216;-66
2022/01/26 06:14:03;;;;;;;117.53;35.57;;;;;;;;;;6215584;23;20208;-70
2022/01/26 06:16:31;;;;;;;115.70;36.03;;;;;;;;;;6215791;23;20242;-67
2022/01/26 06:18:58;;;;;;;125.73;37.03;;;;;;;;;;6216183;23;20231;-68
2022/01/26 06:21:25;;;;;;;114.93;35.17;;;;;;;;;;6215745;23;20277;-70
2022/01/26 06:23:53;;;;;;;124.83;38.70;;;;;;;;;;6215930;23;20584;-72
2022/01/26 06:26:20;;;;;;;118.87;36.00;;;;;;;;;;6215469;23;20274;-69
2022/01/26 06:28:47;;;;;;;130.50;41.53;;;;;;;;;;6215957;23;20556;-70
2022/01/26 06:31:16;;;;;;;146.60;45.57;;;;;;;;;;6216288;23;20207;-71
2022/01/26 06:33:46;;;;;;;165.87;54.80;;;;;;;;;;6239735;23;20239;-71
2022/01/26 06:36:16;;;;;;;182.53;62.33;;;;;;;;;;6216301;23;20180;-70
2022/01/26 06:38:46;;;;;;;149.10;46.90;;;;;;;;;;6216370;23;20678;-71
2022/01/26 06:41:15;;;;;;;124.63;40.20;;;;;;;;;;6216439;23;20259;-71
2022/01/26 06:43:49;;;;;;;126.13;41.57;;;;;;;;;;6239339;23;20690;-70
2022/01/26 06:46:26;;;;;;;125.60;43.53;;;;;;;;;;6226111;23;20198;-69
2022/01/26 06:49:03;;;;;;;145.13;44.60;;;;;;;;;;6216563;23;20529;-72
2022/01/26 06:51:30;;;;;;;111.73;37.70;;;;;;;;;;6216231;23;20250;-71
2022/01/26 06:53:57;;;;;;;123.33;41.10;;;;;;;;;;6216503;23;20198;-72
2022/01/26 06:56:25;;;;;;;125.87;39.63;;;;;;;;;;6216198;23;20631;-72
2022/01/26 06:58:52;;;;;;;130.57;41.33;;;;;;;;;;6216460;23;20186;-71
2022/01/26 07:01:19;;;;;;;175.03;61.37;;;;;;;;;;6216426;23;20231;-71
2022/01/26 07:03:47;;;;;;;267.40;101.17;;;;;;;;;;6216080;23;20563;-69
2022/01/26 07:06:14;;;;;;;271.67;114.53;;;;;;;;;;6216608;23;20206;-71
2022/01/26 07:08:42;;;;;;;153.53;59.87;;;;;;;;;;6216335;23;20184;-69
2022/01/26 07:11:09;;;;;;;151.97;57.27;;;;;;;;;;6216657;23;20211;-72
2022/01/26 07:13:39;;;;;;;101.27;34.40;;;;;;;;;;6216372;23;20181;-71
2022/01/26 07:21:28;;;;;;;106.27;38.20;;;;;;;;;;6216357;23;20474;-72
2022/01/26 07:23:58;;;;;;;156.30;60.07;;;;;;;;;;6215991;23;20181;-72
2022/01/26 07:26:30;;;;;;;140.73;53.20;;;;;;;;;;6215819;23;20204;-71
2022/01/26 07:29:00;;;;;;;139.80;57.07;;;;;;;;;;6216376;23;20172;-71
2022/01/26 07:31:27;;;;;;;101.60;37.80;;;;;;;;;;6216228;23;20274;-71
2022/01/26 07:33:56;;;;;;;100.63;34.93;;;;;;;;;;6216231;23;20249;-70
2022/01/26 07:36:24;;;;;;;111.13;40.93;;;;;;;;;;6216003;23;20188;-71
2022/01/26 07:38:54;;;;;;;107.03;38.63;;;;;;;;;;6216190;23;20180;-70
2022/01/26 07:41:22;;;;;;;97.53;34.97;;;;;;;;;;6214413;23;20600;-71
2022/01/26 07:43:49;;;;;;;105.20;35.93;;;;;;;;;;6216199;23;20623;-71
2022/01/26 07:46:17;;;;;;;103.67;35.37;;;;;;;;;;6215800;23;20180;-71
2022/01/26 07:48:44;;;;;;;98.73;35.60;;;;;;;;;;6216048;23;20234;-71
2022/01/26 07:51:12;;;;;;;96.97;34.63;;;;;;;;;;6216230;23;20267;-70
2022/01/26 07:53:40;;;;;;;105.93;37.63;;;;;;;;;;6216127;23;20263;-72
2022/01/26 07:56:07;;;;;;;144.23;51.93;;;;;;;;;;6215823;23;20478;-71
2022/01/26 07:58:35;;;;;;;144.27;50.73;;;;;;;;;;6216077;23;20184;-71
2022/01/26 08:01:02;;;;;;;121.63;42.90;;;;;;;;;;6215794;23;20263;-72
2022/01/26 08:03:33;;;;;;;127.73;42.70;;;;;;;;;;6214709;23;20273;-72
2022/01/26 08:06:03;;;;;;;173.63;58.10;;;;;;;;;;6216016;23;20169;-71
2022/01/26 08:08:30;;;;;;;211.37;72.93;;;;;;;;;;6214706;23;20180;-70
2022/01/26 08:10:58;;;;;;;186.77;60.13;;;;;;;;;;6214491;23;20206;-71
2022/01/26 08:13:26;;;;;;;153.83;54.00;;;;;;;;;;6215984;23;20186;-71
2022/01/26 08:15:57;;;;;;;168.80;55.00;;;;;;;;;;6216192;23;20180;-71
2022/01/26 08:18:24;;;;;;;181.80;56.97;;;;;;;;;;6217684;23;20195;-72
2022/01/26 08:20:52;;;;;;;111.37;38.27;;;;;;;;;;6218050;23;20180;-71
2022/01/26 08:23:21;;;;;;;108.00;38.53;;;;;;;;;;6217972;23;20266;-72
2022/01/26 08:25:52;;;;;;;107.70;36.27;;;;;;;;;;6217522;23;20208;-71
2022/01/26 08:28:25;;;;;;;103.77;35.63;;;;;;;;;;6218219;23;20565;-71
2022/01/26 08:30:53;;;;;;;152.23;50.90;;;;;;;;;;6227853;23;20195;-71
2022/01/26 08:33:21;;;;;;;232.93;84.23;;;;;;;;;;6217985;23;20187;-70
2022/01/26 08:35:48;;;;;;;203.13;76.90;;;;;;;;;;6217958;23;20180;-69
2022/01/26 08:38:15;;;;;;;142.47;46.80;;;;;;;;;;6217809;23;20180;-72
2022/01/26 08:40:44;;;;;;;104.50;38.67;;;;;;;;;;6218035;23;20255;-71
2022/01/26 08:43:11;;;;;;;141.43;49.33;;;;;;;;;;6217820;23;20180;-71
2022/01/26 08:45:39;;;;;;;116.03;42.43;;;;;;;;;;6217507;23;20230;-72
2022/01/26 08:48:06;;;;;;;133.47;47.63;;;;;;;;;;6217805;23;20230;-71
2022/01/26 08:50:34;;;;;;;132.00;44.93;;;;;;;;;;6217491;23;20177;-72
2022/01/26 08:53:01;;;;;;;115.80;40.83;;;;;;;;;;6217756;23;20513;-71
2022/01/26 08:55:29;;;;;;;127.87;43.83;;;;;;;;;;6217675;23;20184;-70
2022/01/26 08:57:56;;;;;;;158.83;48.43;;;;;;;;;;6217676;23;20180;-71
2022/01/26 09:00:23;;;;;;;156.03;47.47;;;;;;;;;;6217289;23;20476;-71
2022/01/26 09:02:53;;;;;;;152.43;43.87;;;;;;;;;;6240868;23;20645;-71
2022/01/26 09:05:20;;;;;;;171.70;47.53;;;;;;;;;;6217605;23;20180;-71
2022/01/26 09:07:49;;;;;;;153.57;44.83;;;;;;;;;;6217741;23;20180;-71
2022/01/26 09:10:17;;;;;;;148.53;43.17;;;;;;;;;;6217427;23;20612;-70
2022/01/26 09:12:45;;;;;;;162.33;42.43;;;;;;;;;;6217454;23;20279;-71
2022/01/26 09:15:13;;;;;;;168.97;50.57;;;;;;;;;;6217081;23;20615;-70
2022/01/26 09:17:42;;;;;;;170.27;46.40;;;;;;;;;;6215962;23;20657;-71
2022/01/26 09:20:10;;;;;;;151.03;45.33;;;;;;;;;;6217242;23;20184;-71
2022/01/26 09:22:38;;;;;;;133.87;43.77;;;;;;;;;;6217463;23;20184;-72
2022/01/26 09:25:06;;;;;;;127.57;42.07;;;;;;;;;;6216987;23;20204;-71
2022/01/26 09:27:34;;;;;;;140.10;44.23;;;;;;;;;;6217217;23;20693;-71
2022/01/26 09:30:02;;;;;;;136.47;45.07;;;;;;;;;;6216824;23;20203;-71
2022/01/26 09:32:35;;;;;;;129.93;41.60;;;;;;;;;;6217305;23;20204;-69
2022/01/26 09:35:04;;;;;;;133.87;45.17;;;;;;;;;;6215977;23;20176;-70
2022/01/26 09:37:31;;;;;;;118.83;40.30;;;;;;;;;;6215972;23;20238;-71
2022/01/26 09:39:58;;;;;;;139.43;43.80;;;;;;;;;;6217092;23;20650;-72
2022/01/26 09:42:25;;;;;;;149.90;45.30;;;;;;;;;;6217229;23;20243;-70
2022/01/26 09:44:52;;;;;;;148.73;43.20;;;;;;;;;;6217379;23;20181;-71
2022/01/26 09:47:21;;;;;;;166.80;46.53;;;;;;;;;;6217331;23;20210;-71
2022/01/26 09:49:49;;;;;;;161.20;46.43;;;;;;;;;;6217040;23;20574;-71
2022/01/26 09:52:27;;;;;;;151.90;44.67;;;;;;;;;;6216716;23;20663;-71
2022/01/26 09:54:58;;;;;;;194.93;61.03;;;;;;;;;;6226914;23;20243;-70
2022/01/26 09:57:27;;;;;;;221.20;82.10;;;;;;;;;;6217271;23;20169;-70
2022/01/26 09:59:56;;;;;;;200.07;70.63;;;;;;;;;;6217022;23;20186;-71
2022/01/26 10:02:31;;;;;;;208.93;81.80;;;;;;;;;;6217197;23;20187;-70
2022/01/26 10:05:06;;;;;;;215.80;79.90;;;;;;;;;;6216948;23;20176;-72
2022/01/26 10:15:28;;;;;;;202.13;50.60;;;;;;;;;;6216949;23;20180;-69
2022/01/26 10:18:11;;;;;;;230.80;55.37;;;;;;;;;;6216958;23;20250;-71
2022/01/26 10:21:08;;;;;;;176.67;53.80;;;;;;;;;;6216883;23;20169;-71
2022/01/26 10:23:38;;;;;;;139.97;43.87;;;;;;;;;;6197811;23;20211;-71
2022/01/26 10:26:07;;;;;;;146.77;46.80;;;;;;;;;;6216314;23;20211;-71
2022/01/26 10:28:40;;;;;;;120.67;39.07;;;;;;;;;;6216824;23;20186;-72
2022/01/26 10:31:22;;;;;;;128.43;44.23;;;;;;;;;;6226493;23;20169;-71
2022/01/26 10:34:18;;;;;;;98.57;36.27;;;;;;;;;;6216799;23;20168;-70
2022/01/26 10:36:50;;;;;;;71.30;30.97;;;;;;;;;;6216743;23;20168;-71
2022/01/26 10:39:31;;;;;;;88.00;33.90;;;;;;;;;;6240358;23;20493;-72
2022/01/26 10:42:09;;;;;;;61.67;26.73;;;;;;;;;;6216890;23;20168;-70
2022/01/26 10:44:49;;;;;;;50.73;24.10;;;;;;;;;;6239505;23;20247;-71
2022/01/26 10:47:27;;;;;;;58.17;26.23;;;;;;;;;;6226457;23;20175;-69
2022/01/26 10:50:08;;;;;;;57.67;26.73;;;;;;;;;;6226795;23;20171;-71
2022/01/26 10:52:36;;;;;;;65.70;29.57;;;;;;;;;;6216527;23;20202;-71
2022/01/26 10:55:06;;;;;;;64.77;29.87;;;;;;;;;;6216284;23;20235;-70
2022/01/26 10:57:35;;;;;;;84.90;36.30;;;;;;;;;;6226360;23;20630;-71
2022/01/26 11:00:05;;;;;;;89.63;36.07;;;;;;;;;;6216119;23;20206;-71
2022/01/26 11:02:34;;;;;;;92.40;37.50;;;;;;;;;;6216480;23;20239;-69
2022/01/26 11:05:02;;;;;;;101.87;37.07;;;;;;;;;;6216295;23;20180;-71
2022/01/26 11:07:36;;;;;;;115.73;43.60;;;;;;;;;;6216461;23;20259;-70
2022/01/26 11:10:06;;;;;;;109.53;37.47;;;;;;;;;;6226184;23;20204;-71
2022/01/26 11:12:35;;;;;;;127.57;42.77;;;;;;;;;;6215765;23;20510;-71
2022/01/26 11:15:15;;;;;;;147.50;44.43;;;;;;;;;;6239942;23;20187;-71
2022/01/26 11:17:46;;;;;;;128.53;40.43;;;;;;;;;;6226120;23;20164;-71
2022/01/26 11:20:18;;;;;;;113.17;38.43;;;;;;;;;;6226104;23;20247;-71
2022/01/26 11:22:48;;;;;;;136.33;42.03;;;;;;;;;;6216268;23;20244;-71
2022/01/26 11:25:16;;;;;;;135.90;41.47;;;;;;;;;;6215957;23;20211;-71
2022/01/26 11:27:43;;;;;;;130.57;39.80;;;;;;;;;;6216282;23;20180;-71
2022/01/26 11:30:15;;;;;;;111.53;36.77;;;;;;;;;;6215760;23;20556;-72
2022/01/26 11:32:56;;;;;;;97.90;34.67;;;;;;;;;;6225911;23;20219;-70
2022/01/26 11:35:26;;;;;;;92.77;35.73;;;;;;;;;;6216272;23;20175;-70
2022/01/26 11:38:09;;;;;;;87.03;31.07;;;;;;;;;;6216176;23;20175;-71
2022/01/26 11:46:19;;;;;;;76.63;32.17;;;;;;;;;;6215816;23;20187;-72
2022/01/26 11:48:46;;;;;;;64.53;28.97;;;;;;;;;;6239637;23;20180;-71
2022/01/26 11:51:13;;;;;;;75.60;31.83;;;;;;;;;;6215661;23;20180;-70
2022/01/26 11:53:41;;;;;;;82.77;34.57;;;;;;;;;;6215789;23;20281;-72
2022/01/26 11:56:13;;;;;;;87.83;38.07;;;;;;;;;;6216122;23;20184;-72
2022/01/26 11:58:45;;;;;;;76.73;34.37;;;;;;;;;;6216067;23;20222;-71
2022/01/26 12:01:27;;;;;;;77.70;36.13;;;;;;;;;;6214753;23;20168;-72
2022/01/26 12:03:59;;;;;;;81.43;35.17;;;;;;;;;;6215974;23;20172;-71
2022/01/26 12:06:28;;;;;;;80.13;35.83;;;;;;;;;;6215740;23;20604;-71
2022/01/26 12:08:58;;;;;;;72.87;33.40;;;;;;;;;;6216029;23;20187;-70
2022/01/26 12:11:29;;;;;;;69.90;33.33;;;;;;;;;;6215950;23;20631;-71
2022/01/26 12:14:00;;;;;;;84.07;35.43;;;;;;;;;;6216061;23;20175;-71
2022/01/26 12:16:38;;;;;;;77.80;35.47;;;;;;;;;;6216255;23;20168;-71
2022/01/26 12:43:18;;;;;;;63.90;34.87;;;;;;;;;;6216000;23;20175;-70
2022/01/26 12:45:56;;;;;;;60.43;35.93;;;;;;;;;;6224947;23;20168;-70
2022/01/26 12:48:23;;;;;;;54.20;30.67;;;;;;;;;;6206976;23;20689;-72
2022/01/26 12:50:50;;;;;;;62.50;32.30;;;;;;;;;;6215563;23;20204;-68
2022/01/26 12:53:28;;;;;;;50.93;29.00;;;;;;;;;;6213371;23;20294;-69
2022/01/26 12:55:58;;;;;;;51.23;26.50;;;;;;;;;;6218189;23;20207;-69
2022/01/26 12:58:28;;;;;;;48.83;25.80;;;;;;;;;;6214877;23;20219;-72
2022/01/26 13:01:01;;;;;;;54.27;29.40;;;;;;;;;;6238658;23;20600;-69
2022/01/26 13:03:40;;;;;;;74.03;33.87;;;;;;;;;;6215139;23;20215;-69
2022/01/26 13:06:21;;;;;;;56.70;29.17;;;;;;;;;;6219212;23;20204;-69
2022/01/26 13:08:51;;;;;;;54.30;29.67;;;;;;;;;;6216583;23;20204;-69
2022/01/26 13:11:30;;;;;;;52.73;27.57;;;;;;;;;;6216846;23;20211;-69
2022/01/26 13:14:18;;;;;;;45.83;25.87;;;;;;;;;;6216776;23;20219;-69
2022/01/26 13:20:13;;;;;;;56.60;28.13;;;;;;;;;;6217435;23;20254;-68
2022/01/26 13:51:41;;;;;;;108.87;38.40;;;;;;;;;;6217258;23;20169;-69
2022/01/26 13:54:49;;;;;;;132.33;44.23;;;;;;;;;;6216742;23;20624;-69
2022/01/26 13:57:12;;;;;;;73.77;30.77;;;;;;;;;;6212465;23;20203;-69
2022/01/26 13:59:53;;;;;;;56.10;27.90;;;;;;;;;;6213651;23;20233;-69
2022/01/26 14:02:20;;;;;;;55.30;27.30;;;;;;;;;;6218430;23;20210;-70
2022/01/26 14:04:53;;;;;;;70.07;36.93;;;;;;;;;;6214855;23;20274;-70
2022/01/26 14:07:20;;;;;;;82.83;30.63;;;;;;;;;;6216021;23;20203;-71
2022/01/26 14:09:47;;;;;;;58.00;28.10;;;;;;;;;;6216424;23;20211;-70
2022/01/26 14:12:17;;;;;;;61.17;29.23;;;;;;;;;;6187923;23;20266;-70
2022/01/26 14:14:48;;;;;;;59.03;27.87;;;;;;;;;;6212438;23;20207;-70
2022/01/26 14:17:24;;;;;;;74.40;33.90;;;;;;;;;;6214449;23;20651;-72
2022/01/26 14:23:00;;;;;;;70.77;34.53;;;;;;;;;;6215887;23;20227;-71
2022/01/26 14:25:28;;;;;;;94.43;49.73;;;;;;;;;;6215325;23;20212;-70
2022/01/26 14:28:02;;;;;;;64.20;29.93;;;;;;;;;;6214889;23;20211;-71
2022/01/26 14:51:46;;;;;;;83.53;40.00;;;;;;;;;;6215778;23;20541;-70
2022/01/26 15:11:00;;;;;;;92.27;32.10;;;;;;;;;;6215622;23;20204;-69
2022/01/26 15:22:56;;;;;;;64.10;26.90;;;;;;;;;;6215993;23;20208;-62
2022/01/26 15:40:21;;;;;;;87.10;35.27;;;;;;;;;;6214870;23;20207;-70
2022/01/26 15:51:07;;;;;;;126.03;43.70;;;;;;;;;;6203051;23;20203;-70
2022/01/26 15:59:04;;;;;;;136.77;45.17;;;;;;;;;;6214212;23;20285;-66
2022/01/26 16:20:10;;;;;;;81.40;37.93;;;;;;;;;;6215765;23;20204;-63
2022/01/26 16:37:18;;;;;;;97.93;39.97;;;;;;;;;;6215584;23;20204;-71
2022/01/26 17:13:00;;;;;;;106.33;57.50;;;;;;;;;;6217276;23;20204;-68
2022/01/26 18:16:59;;;;;;;167.10;53.80;;;;;;;;;;6216145;23;20659;-70
2022/01/26 18:51:52;;;;;;;152.73;47.77;;;;;;;;;;6214821;23;20286;-67
2022/01/26 18:54:24;;;;;;;214.23;84.00;;;;;;;;;;6215298;23;20222;-65
2022/01/26 18:56:52;;;;;;;111.57;43.00;;;;;;;;;;6216117;23;20214;-67
2022/01/26 18:59:20;;;;;;;100.27;40.70;;;;;;;;;;6215789;23;20227;-64
2022/01/26 19:01:48;;;;;;;108.17;41.37;;;;;;;;;;6215998;23;20204;-65
2022/01/26 19:04:33;;;;;;;110.40;40.53;;;;;;;;;;6213146;23;20204;-65
2022/01/26 19:07:01;;;;;;;106.50;38.90;;;;;;;;;;6216327;23;20522;-68
2022/01/26 19:09:32;;;;;;;109.77;40.03;;;;;;;;;;6214362;23;20208;-68
2022/01/26 19:12:02;;;;;;;114.47;40.20;;;;;;;;;;6216064;23;20204;-72
2022/01/26 19:14:35;;;;;;;142.40;44.10;;;;;;;;;;6215494;23;20683;-71
2022/01/26 19:17:09;;;;;;;135.27;44.27;;;;;;;;;;6215770;23;20223;-70
2022/01/26 19:19:50;;;;;;;155.97;50.20;;;;;;;;;;6215629;23;20203;-71
2022/01/26 19:51:13;;;;;;;139.57;44.53;;;;;;;;;;6214737;23;20203;-67
2022/01/26 19:53:41;;;;;;;137.07;46.53;;;;;;;;;;6213620;23;20212;-67
2022/01/26 19:56:09;;;;;;;135.87;46.93;;;;;;;;;;6213904;23;20204;-66
2022/01/26 19:58:36;;;;;;;144.47;47.57;;;;;;;;;;6213931;23;20238;-68
2022/01/26 20:01:05;;;;;;;152.70;49.87;;;;;;;;;;6212127;23;20212;-66
2022/01/26 20:03:34;;;;;;;133.67;45.67;;;;;;;;;;6214459;23;20290;-67
2022/01/26 20:06:06;;;;;;;137.80;47.80;;;;;;;;;;6212515;23;20678;-66
2022/01/26 20:11:39;;;;;;;118.90;41.70;;;;;;;;;;6207075;23;20550;-67
2022/01/26 20:14:06;;;;;;;122.60;43.03;;;;;;;;;;6218378;23;20212;-67
2022/01/26 20:16:35;;;;;;;115.80;41.20;;;;;;;;;;6214201;23;20217;-67
2022/01/26 20:19:04;;;;;;;114.20;42.27;;;;;;;;;;6213961;23;20234;-66
2022/01/26 20:21:31;;;;;;;119.20;45.50;;;;;;;;;;6215270;23;20203;-66
2022/01/26 20:24:00;;;;;;;107.67;41.53;;;;;;;;;;6214543;23;20218;-66
2022/01/26 20:26:27;;;;;;;114.93;44.23;;;;;;;;;;6216275;23;20283;-66
2022/01/26 20:28:55;;;;;;;122.87;43.47;;;;;;;;;;6216640;23;20230;-67
2022/01/26 20:31:24;;;;;;;105.77;41.13;;;;;;;;;;6216281;23;20206;-67
2022/01/26 20:33:53;;;;;;;95.90;40.27;;;;;;;;;;6216402;23;20254;-67
2022/01/26 20:36:23;;;;;;;83.97;35.00;;;;;;;;;;6216597;23;20207;-67
2022/01/26 20:38:50;;;;;;;83.60;35.57;;;;;;;;;;6216054;23;20187;-67
2022/01/26 20:41:18;;;;;;;74.20;33.40;;;;;;;;;;6215645;23;21058;-67
2022/01/26 20:43:45;;;;;;;77.53;34.23;;;;;;;;;;6216210;23;20186;-66
2022/01/26 20:46:13;;;;;;;71.70;32.47;;;;;;;;;;6216368;23;20246;-66
2022/01/26 20:48:40;;;;;;;65.63;30.13;;;;;;;;;;6216457;23;20255;-67
2022/01/26 20:51:07;;;;;;;50.63;26.73;;;;;;;;;;6216172;23;20622;-66
2022/01/26 20:53:35;;;;;;;48.37;24.13;;;;;;;;;;6215987;23;20180;-67
2022/01/26 20:56:03;;;;;;;47.97;26.70;;;;;;;;;;6216619;23;20180;-67
2022/01/26 20:58:30;;;;;;;55.70;25.67;;;;;;;;;;6241383;23;20207;-67
2022/01/26 21:01:05;;;;;;;45.60;24.73;;;;;;;;;;6217762;23;20510;-68
2022/01/26 21:03:32;;;;;;;56.13;25.87;;;;;;;;;;6217414;23;20180;-67
2022/01/26 21:06:00;;;;;;;44.50;22.37;;;;;;;;;;6217896;23;20180;-67
2022/01/26 21:08:27;;;;;;;44.17;22.57;;;;;;;;;;6217444;23;20255;-67
2022/01/26 21:10:55;;;;;;;35.57;20.67;;;;;;;;;;6216139;23;20184;-67
2022/01/26 21:13:33;;;;;;;47.00;23.33;;;;;;;;;;6217741;23;20168;-67
2022/01/26 21:16:02;;;;;;;42.80;22.63;;;;;;;;;;6227581;23;20169;-67
2022/01/26 21:18:31;;;;;;;34.23;19.80;;;;;;;;;;6217163;23;20203;-67
2022/01/26 21:21:00;;;;;;;33.50;19.33;;;;;;;;;;6217561;23;20181;-67
2022/01/26 21:23:28;;;;;;;35.93;19.47;;;;;;;;;;6217445;23;20207;-67
2022/01/26 21:25:56;;;;;;;33.63;17.93;;;;;;;;;;6217010;23;20216;-66
2022/01/26 21:28:23;;;;;;;40.87;20.53;;;;;;;;;;6217462;23;20181;-67
2022/01/26 21:30:51;;;;;;;38.50;21.97;;;;;;;;;;6217556;23;20180;-67
2022/01/26 21:33:20;;;;;;;30.93;19.17;;;;;;;;;;6217120;23;20243;-66
2022/01/26 21:35:48;;;;;;;45.50;21.30;;;;;;;;;;6217175;23;20259;-67
2022/01/26 21:38:15;;;;;;;30.27;17.87;;;;;;;;;;6217257;23;20693;-67
2022/01/26 21:40:43;;;;;;;37.47;20.13;;;;;;;;;;6217397;23;20203;-67